createdAt,value
2023-05-01T00:19:32.697Z,10.58
2023-05-01T00:39:32.678Z,10.58
2023-05-01T00:59:32.414Z,10.58
2023-05-01T01:19:32.682Z,10.58
2023-05-01T01:39:32.648Z,10.58
2023-05-01T02:19:32.372Z,10.58
2023-05-01T02:39:31.977Z,10.58
2023-05-01T02:59:32.608Z,10.57
2023-05-01T03:19:32.615Z,10.57
2023-05-01T03:59:32.579Z,10.57
2023-05-01T04:19:32.553Z,10.56
2023-05-01T04:39:32.566Z,10.55
2023-05-01T05:19:32.517Z,10.52
2023-05-01T05:39:32.489Z,10.51
2023-05-01T05:59:32.473Z,10.49
2023-05-01T09:19:32.221Z,10.41
2023-05-01T10:59:32.051Z,10.38
2023-05-01T11:19:32.052Z,10.38
2023-05-01T14:19:31.723Z,10.45
2023-05-01T14:59:31.735Z,10.47
2023-05-01T15:19:31.716Z,10.48
2023-05-01T15:39:31.629Z,10.5
2023-05-01T16:19:31.578Z,10.55
2023-05-01T16:39:31.592Z,10.57
2023-05-01T16:59:31.257Z,10.57
2023-05-01T17:19:31.517Z,10.59
2023-05-01T17:39:31.494Z,10.61
2023-05-01T17:59:31.228Z,10.64
2023-05-01T18:19:31.425Z,10.66
2023-05-01T18:39:31.399Z,10.67
2023-05-01T18:59:31.393Z,10.68
2023-05-01T19:19:31.069Z,10.68
2023-05-01T19:39:31.354Z,10.7
2023-05-01T19:59:31.303Z,10.71
2023-05-01T20:19:31.356Z,10.74
2023-05-01T20:39:31.280Z,10.75
2023-05-01T20:59:31.260Z,10.77
2023-05-01T21:19:31.221Z,10.78
2023-05-01T21:39:31.205Z,10.78
2023-05-01T21:59:30.560Z,10.78
2023-05-01T22:19:31.178Z,10.78
2023-05-01T22:39:31.159Z,10.79
2023-05-01T22:59:31.145Z,10.79
2023-05-01T23:19:31.120Z,10.79
2023-05-01T23:39:31.090Z,10.79
2023-05-01T23:59:31.084Z,10.8
